KCEZ/CEZ METAR and TAF weather

Enter ICAO airport designator
Station Type Date Time Source
KCEZ METAR 2019/02/21 11:43 UTC NOAA

KCEZ 211143Z AUTO 00000KT 1SM -SN BR VV014 M04/M06 A2964 RMK AO2 P0001 T10441061


Station Type Date Time Source
KCEZ Decoded METAR 2019/02/21 11:43 UTC NOAA

CORTEZ MONTEZUMA COUNTY AIRPORT , CO, United States (KCEZ) 37-18N 108-38W 1797M
Feb 21, 2019 - 06:43 AM EST / 2019.02.21 1143 UTC
Wind: Calm:0
Visibility: 1 mile(s):0
Sky conditions: obscured
Weather: light snow; mist
Precipitation last hour: 0.01 inches
Temperature: 24.1 F (-4.4 C)
Dew Point: 21.0 F (-6.1 C)
Relative Humidity: 87%
Pressure (altimeter): 29.64 in. Hg (1003 hPa)
ob: KCEZ 211143Z AUTO 00000KT 1SM -SN BR VV014 M04/M06 A2964 RMK AO2 P0001 T10441061
cycle: 11

Station Type Date Time Source
KCEZ TAF UTC NOAA

Error!


Example: see airport list